Galena Park, Texas
Current Conditions -  °F | °C
As of 10:53 AM on Friday 24 Oct 2014 (Local Time) from KHOU Reporting Station
Clear Clear  
Wind Chill: 70°   Ceiling: Unl
Heat Index: 70°   Visibility: 10mi
Dew Point: 53°   Wind: 3mph
Humidity: 55%   Direction: NA
Pressure: 30.17"   Gusts: NA
Location:  29.73°N, 95.24°W
Report Text: KHOU 241553Z VRB03KT 10SM CLR 21/12 A3017 RMK AO2 SLP221 T02110117
Loading
Personal Weather Stations






























Interactive Weather Map
Tropical Storm Tracking
New forecast layout! Learn more

10-Day Weather Forecast

Advertisements
Track Severe Weather on mobile